Kakuwamaru — JD4224 — position and weather

sailwx.info

Track history (hours):
 
Tides and Currents Weather Stations Pressure Air Temp Water Temp Dewpoint Dewpoint Depression Visibility Wind Speed Wind Dir Waves Ship Positions

Kakuwamaru

Last reported at 2018-Jan-22 16:50 UTC. Time now 2018-Jan-23 08:24 UTC.
Position N 34°35' E 138°49'.

Length 67 m; draft 4 m.

Type: Tanker. MMSI: 431009761.

Date/timePositionNaut miles runAvg speedWind from/ knotsBaromVisibWave heightAir tempDewpointWater temp
2018-Jan-22 16:50N 34°35' E 138°49'410.2
2018-Jan-22 16:29N 34°35' E 138°53'5 8.8
2018-Jan-22 15:52N 34°38' E 138°59'611.2
2018-Jan-22 15:17N 34°42' E 139°04'411.6
2018-Jan-22 14:57N 34°45' E 139°08'510.2
2018-Jan-22 14:28N 34°49' E 139°12'510.9
2018-Jan-22 13:59N 34°52' E 139°17'610.6
2018-Jan-22 13:27N 34°56' E 139°22'510.8
2018-Jan-22 13:00N 34°59' E 139°26'611.4
2018-Jan-22 12:30N 35°02' E 139°32'611.9
2018-Jan-22 12:00N 35°05' E 139°38'612.3
2018-Jan-22 11:30N 35°09' E 139°44'612.7
2018-Jan-22 11:00N 35°15' E 139°46'612.2
2018-Jan-22 10:30N 35°20' E 139°42'611.4
2018-Jan-22 10:00N 35°26' E 139°45'612.5
2018-Jan-22 09:31N 35°29' E 139°51'612.3
2018-Jan-22 09:00N 35°32' E 139°58'510.2
2018-Jan-22 08:30N 35°33' E 140°04'1 2.1
2018-Jan-22 07:57N 35°33' E 140°05'0 0.0
2018-Jan-22 07:30N 35°33' E 140°05'0 0.0
2018-Jan-22 07:00N 35°33' E 140°05'0 0.0
2018-Jan-22 06:30N 35°33' E 140°05'0 0.0
2018-Jan-22 06:00N 35°33' E 140°05'0 0.0
2018-Jan-22 05:31N 35°33' E 140°05'0 0.0
2018-Jan-22 05:00N 35°33' E 140°05'0 0.1
2018-Jan-22 04:30N 35°33' E 140°05'4 7.0
2018-Jan-22 04:00N 35°32' E 140°01'510.8
2018-Jan-22 03:31N 35°29' E 139°56'1 0.9
2018-Jan-22 02:58N 35°29' E 139°55'0 0.0
2018-Jan-22 02:22N 35°29' E 139°55'0 0.0
2018-Jan-22 01:43N 35°29' E 139°55'0 0.0
2018-Jan-22 01:25N 35°29' E 139°55'0 0.0
2018-Jan-22 00:52N 35°29' E 139°55'0 0.0
2018-Jan-22 00:28N 35°29' E 139°55'0 0.0
2018-Jan-21 23:58N 35°29' E 139°55'0 0.0
2018-Jan-21 23:28N 35°29' E 139°55'0 0.0
2018-Jan-21 22:55N 35°29' E 139°55'0 0.0
2018-Jan-21 22:28N 35°29' E 139°55'0 0.0
2018-Jan-21 21:55N 35°29' E 139°55'0 0.0
2018-Jan-21 21:25N 35°29' E 139°55'0 0.0
2018-Jan-21 20:55N 35°29' E 139°55'0 0.0
2018-Jan-21 20:25N 35°29' E 139°55'0 0.0
2018-Jan-21 19:58N 35°29' E 139°55'0 0.0
2018-Jan-21 19:28N 35°29' E 139°55'0 0.0
2018-Jan-21 18:55N 35°29' E 139°55'0 0.0
2018-Jan-21 18:19N 35°29' E 139°55'0 0.0
2018-Jan-21 17:58N 35°29' E 139°55'0 0.0
2018-Jan-21 17:25N 35°29' E 139°55'0 0.0
2018-Jan-21 16:58N 35°29' E 139°55'0 0.0
2018-Jan-21 16:28N 35°29' E 139°55'0 0.0
2018-Jan-21 15:58N 35°29' E 139°55'0 0.0
2018-Jan-21 15:28N 35°29' E 139°55'0 0.0
2018-Jan-21 14:58N 35°29' E 139°55'0 0.0
2018-Jan-21 14:28N 35°29' E 139°55'0 0.0
2018-Jan-21 13:58N 35°29' E 139°55'0 0.0
2018-Jan-21 13:25N 35°29' E 139°55'0 0.0
2018-Jan-21 12:58N 35°29' E 139°55'0 0.0
2018-Jan-21 12:28N 35°29' E 139°55'0 0.0
2018-Jan-21 11:58N 35°29' E 139°55'0 0.0
2018-Jan-21 11:28N 35°29' E 139°55'3 7.6
2018-Jan-21 11:00N 35°28' E 139°51'612.2
2018-Jan-21 10:30N 35°23' E 139°46'611.6
2018-Jan-21 10:00N 35°18' E 139°45'612.0
2018-Jan-21 09:30N 35°12' E 139°47'612.5
2018-Jan-21 09:00N 35°06' E 139°44'612.6
2018-Jan-21 08:30N 35°01' E 139°39'813.2
2018-Jan-21 07:55N 34°57' E 139°31'614.5
2018-Jan-21 07:28N 34°53' E 139°25'714.8
2018-Jan-21 07:00N 34°49' E 139°18'714.3
2018-Jan-21 06:29N 34°44' E 139°11'714.9
2018-Jan-21 06:00N 34°40' E 139°04'713.8
2018-Jan-21 05:29N 34°36' E 138°57'713.3
2018-Jan-21 04:59N 34°34' E 138°49'612.1
2018-Jan-21 04:30N 34°33' E 138°42'712.3
2018-Jan-21 03:56N 34°33' E 138°34'612.4
2018-Jan-21 03:28N 34°33' E 138°27'612.6
2018-Jan-21 02:59N 34°32' E 138°19'16810.6
2018-Jan-20 11:05N 33°48' E 135°04'112.1
2018-Jan-20 10:58N 33°49' E 135°03'612.0
2018-Jan-20 10:30N 33°54' E 134°60'612.7
2018-Jan-20 10:00N 34°01' E 134°59'612.9
2018-Jan-20 09:30N 34°07' E 134°59'713.3
2018-Jan-20 09:00N 34°14' E 134°59'613.0
2018-Jan-20 08:30N 34°20' E 134°60'612.8
2018-Jan-20 08:00N 34°25' E 135°06'713.2
2018-Jan-20 07:30N 34°29' E 135°12'612.5
2018-Jan-20 07:00N 34°33' E 135°18'611.7
2018-Jan-20 06:30N 34°36' E 135°23'3 5.6
2018-Jan-20 05:58N 34°34' E 135°26'0 0.0
2018-Jan-20 05:25N 34°34' E 135°26'0 0.0
2018-Jan-20 04:43N 34°34' E 135°26'0 0.0
2018-Jan-20 04:19N 34°34' E 135°26'0 0.0
2018-Jan-20 03:55N 34°34' E 135°26'0 0.0
2018-Jan-20 03:10N 34°34' E 135°26'0 0.7
2018-Jan-20 03:00N 34°34' E 135°26'4 7.3
2018-Jan-20 02:29N 34°35' E 135°21'612.4
2018-Jan-20 02:00N 34°31' E 135°16'612.9
2018-Jan-20 01:30N 34°26' E 135°10'713.1
2018-Jan-20 01:00N 34°22' E 135°05'713.3
2018-Jan-20 00:30N 34°17' E 134°59'713.5
2018-Jan-20 00:00N 34°10' E 134°59'612.7
2018-Jan-19 23:31N 34°04' E 135°00'612.7
2018-Jan-19 23:01N 33°58' E 135°01'100 7.9
2018-Jan-19 10:25N 34°38' E 136°52'512.6
2018-Jan-19 09:59N 34°42' E 136°48'612.8
2018-Jan-19 09:30N 34°48' E 136°45'612.7
2018-Jan-19 09:00N 34°54' E 136°42'5 9.9
2018-Jan-19 08:30N 34°58' E 136°39'0 0.3
2018-Jan-19 08:00N 34°58' E 136°39'0 0.0
2018-Jan-19 06:25N 34°58' E 136°39'0 0.0
2018-Jan-19 06:00N 34°58' E 136°39'0 0.0
2018-Jan-19 05:30N 34°58' E 136°39'0 0.0
2018-Jan-19 05:00N 34°58' E 136°39'0 0.0
2018-Jan-19 04:30N 34°58' E 136°39'2 4.7
2018-Jan-19 04:00N 34°56' E 136°41'611.8
2018-Jan-19 03:30N 34°51' E 136°44'611.8
2018-Jan-19 03:00N 34°46' E 136°47'611.4
2018-Jan-19 02:30N 34°41' E 136°51'103 8.0
2018-Jan-18 13:42N 33°48' E 135°04'313.0
2018-Jan-18 13:30N 33°50' E 135°02'612.4
2018-Jan-18 13:00N 33°56' E 134°60'612.7
2018-Jan-18 12:30N 34°03' E 134°59'612.7
2018-Jan-18 12:00N 34°09' E 134°59'612.6
2018-Jan-18 11:30N 34°15' E 134°59'611.7
2018-Jan-18 11:00N 34°21' E 134°60'611.9
2018-Jan-18 10:31N 34°25' E 135°05'713.0
2018-Jan-18 10:00N 34°29' E 135°11'612.2
2018-Jan-18 09:30N 34°33' E 135°17'612.0
2018-Jan-18 09:00N 34°36' E 135°23'3 6.3
2018-Jan-18 08:30N 34°34' E 135°26'0 0.0
2018-Jan-18 08:00N 34°34' E 135°26'0 0.0
2018-Jan-18 07:30N 34°34' E 135°26'0 0.0
2018-Jan-18 07:00N 34°34' E 135°26'0 0.0
2018-Jan-18 06:24N 34°34' E 135°26'0 0.0
2018-Jan-18 06:00N 34°34' E 135°26'0 0.1
2018-Jan-18 05:30N 34°34' E 135°26'1 1.2
2018-Jan-18 05:00N 34°35' E 135°25'3 6.3
2018-Jan-18 04:30N 34°36' E 135°21'612.4
2018-Jan-18 04:01N 34°31' E 135°16'612.2
2018-Jan-18 03:30N 34°27' E 135°11'612.3
2018-Jan-18 03:00N 34°23' E 135°06'611.6
2018-Jan-18 02:30N 34°19' E 135°01'612.0
2018-Jan-18 02:00N 34°13' E 134°59'612.5
2018-Jan-18 01:30N 34°07' E 135°00'612.2
2018-Jan-18 01:00N 34°01' E 135°01'  
Track history (hours):
 
Tides and Currents Weather Stations Pressure Air Temp Water Temp Dewpoint Dewpoint Depression Visibility Wind Speed Wind Dir Waves Ship Positions

Kakuwamaru

Last reported at 2018-Jan-22 16:50 UTC. Time now 2018-Jan-23 08:24 UTC.
Position N 34°35' E 138°49'.

Length 67 m; draft 4 m.

Type: Tanker. MMSI: 431009761.

Date/timePositionNaut miles runAvg speedWind from/ knotsBaromVisibWave heightAir tempDewpointWater temp
2018-Jan-22 16:50N 34°35' E 138°49'410.2
2018-Jan-22 16:29N 34°35' E 138°53'5 8.8
2018-Jan-22 15:52N 34°38' E 138°59'611.2
2018-Jan-22 15:17N 34°42' E 139°04'411.6
2018-Jan-22 14:57N 34°45' E 139°08'510.2
2018-Jan-22 14:28N 34°49' E 139°12'510.9
2018-Jan-22 13:59N 34°52' E 139°17'610.6
2018-Jan-22 13:27N 34°56' E 139°22'510.8
2018-Jan-22 13:00N 34°59' E 139°26'611.4
2018-Jan-22 12:30N 35°02' E 139°32'611.9
2018-Jan-22 12:00N 35°05' E 139°38'612.3
2018-Jan-22 11:30N 35°09' E 139°44'612.7
2018-Jan-22 11:00N 35°15' E 139°46'612.2
2018-Jan-22 10:30N 35°20' E 139°42'611.4
2018-Jan-22 10:00N 35°26' E 139°45'612.5
2018-Jan-22 09:31N 35°29' E 139°51'612.3
2018-Jan-22 09:00N 35°32' E 139°58'510.2
2018-Jan-22 08:30N 35°33' E 140°04'1 2.1
2018-Jan-22 07:57N 35°33' E 140°05'0 0.0
2018-Jan-22 07:30N 35°33' E 140°05'0 0.0
2018-Jan-22 07:00N 35°33' E 140°05'0 0.0
2018-Jan-22 06:30N 35°33' E 140°05'0 0.0
2018-Jan-22 06:00N 35°33' E 140°05'0 0.0
2018-Jan-22 05:31N 35°33' E 140°05'0 0.0
2018-Jan-22 05:00N 35°33' E 140°05'0 0.1
2018-Jan-22 04:30N 35°33' E 140°05'4 7.0
2018-Jan-22 04:00N 35°32' E 140°01'510.8
2018-Jan-22 03:31N 35°29' E 139°56'1 0.9
2018-Jan-22 02:58N 35°29' E 139°55'0 0.0
2018-Jan-22 02:22N 35°29' E 139°55'0 0.0
2018-Jan-22 01:43N 35°29' E 139°55'0 0.0
2018-Jan-22 01:25N 35°29' E 139°55'0 0.0
2018-Jan-22 00:52N 35°29' E 139°55'0 0.0
2018-Jan-22 00:28N 35°29' E 139°55'0 0.0
2018-Jan-21 23:58N 35°29' E 139°55'0 0.0
2018-Jan-21 23:28N 35°29' E 139°55'0 0.0
2018-Jan-21 22:55N 35°29' E 139°55'0 0.0
2018-Jan-21 22:28N 35°29' E 139°55'0 0.0
2018-Jan-21 21:55N 35°29' E 139°55'0 0.0
2018-Jan-21 21:25N 35°29' E 139°55'0 0.0
2018-Jan-21 20:55N 35°29' E 139°55'0 0.0
2018-Jan-21 20:25N 35°29' E 139°55'0 0.0
2018-Jan-21 19:58N 35°29' E 139°55'0 0.0
2018-Jan-21 19:28N 35°29' E 139°55'0 0.0
2018-Jan-21 18:55N 35°29' E 139°55'0 0.0
2018-Jan-21 18:19N 35°29' E 139°55'0 0.0
2018-Jan-21 17:58N 35°29' E 139°55'0 0.0
2018-Jan-21 17:25N 35°29' E 139°55'0 0.0
2018-Jan-21 16:58N 35°29' E 139°55'0 0.0
2018-Jan-21 16:28N 35°29' E 139°55'0 0.0
2018-Jan-21 15:58N 35°29' E 139°55'0 0.0
2018-Jan-21 15:28N 35°29' E 139°55'0 0.0
2018-Jan-21 14:58N 35°29' E 139°55'0 0.0
2018-Jan-21 14:28N 35°29' E 139°55'0 0.0
2018-Jan-21 13:58N 35°29' E 139°55'0 0.0
2018-Jan-21 13:25N 35°29' E 139°55'0 0.0
2018-Jan-21 12:58N 35°29' E 139°55'0 0.0
2018-Jan-21 12:28N 35°29' E 139°55'0 0.0
2018-Jan-21 11:58N 35°29' E 139°55'0 0.0
2018-Jan-21 11:28N 35°29' E 139°55'3 7.6
2018-Jan-21 11:00N 35°28' E 139°51'612.2
2018-Jan-21 10:30N 35°23' E 139°46'611.6
2018-Jan-21 10:00N 35°18' E 139°45'612.0
2018-Jan-21 09:30N 35°12' E 139°47'612.5
2018-Jan-21 09:00N 35°06' E 139°44'612.6
2018-Jan-21 08:30N 35°01' E 139°39'813.2
2018-Jan-21 07:55N 34°57' E 139°31'614.5
2018-Jan-21 07:28N 34°53' E 139°25'714.8
2018-Jan-21 07:00N 34°49' E 139°18'714.3
2018-Jan-21 06:29N 34°44' E 139°11'714.9
2018-Jan-21 06:00N 34°40' E 139°04'713.8
2018-Jan-21 05:29N 34°36' E 138°57'713.3
2018-Jan-21 04:59N 34°34' E 138°49'612.1
2018-Jan-21 04:30N 34°33' E 138°42'712.3
2018-Jan-21 03:56N 34°33' E 138°34'612.4
2018-Jan-21 03:28N 34°33' E 138°27'612.6
2018-Jan-21 02:59N 34°32' E 138°19'16810.6
2018-Jan-20 11:05N 33°48' E 135°04'112.1
2018-Jan-20 10:58N 33°49' E 135°03'612.0
2018-Jan-20 10:30N 33°54' E 134°60'612.7
2018-Jan-20 10:00N 34°01' E 134°59'612.9
2018-Jan-20 09:30N 34°07' E 134°59'713.3
2018-Jan-20 09:00N 34°14' E 134°59'613.0
2018-Jan-20 08:30N 34°20' E 134°60'612.8
2018-Jan-20 08:00N 34°25' E 135°06'713.2
2018-Jan-20 07:30N 34°29' E 135°12'612.5
2018-Jan-20 07:00N 34°33' E 135°18'611.7
2018-Jan-20 06:30N 34°36' E 135°23'3 5.6
2018-Jan-20 05:58N 34°34' E 135°26'0 0.0
2018-Jan-20 05:25N 34°34' E 135°26'0 0.0
2018-Jan-20 04:43N 34°34' E 135°26'0 0.0
2018-Jan-20 04:19N 34°34' E 135°26'0 0.0
2018-Jan-20 03:55N 34°34' E 135°26'0 0.0
2018-Jan-20 03:10N 34°34' E 135°26'0 0.7
2018-Jan-20 03:00N 34°34' E 135°26'4 7.3
2018-Jan-20 02:29N 34°35' E 135°21'612.4
2018-Jan-20 02:00N 34°31' E 135°16'612.9
2018-Jan-20 01:30N 34°26' E 135°10'713.1
2018-Jan-20 01:00N 34°22' E 135°05'713.3
2018-Jan-20 00:30N 34°17' E 134°59'713.5
2018-Jan-20 00:00N 34°10' E 134°59'612.7
2018-Jan-19 23:31N 34°04' E 135°00'612.7
2018-Jan-19 23:01N 33°58' E 135°01'100 7.9
2018-Jan-19 10:25N 34°38' E 136°52'512.6
2018-Jan-19 09:59N 34°42' E 136°48'612.8
2018-Jan-19 09:30N 34°48' E 136°45'612.7
2018-Jan-19 09:00N 34°54' E 136°42'5 9.9
2018-Jan-19 08:30N 34°58' E 136°39'0 0.3
2018-Jan-19 08:00N 34°58' E 136°39'0 0.0
2018-Jan-19 06:25N 34°58' E 136°39'0 0.0
2018-Jan-19 06:00N 34°58' E 136°39'0 0.0
2018-Jan-19 05:30N 34°58' E 136°39'0 0.0
2018-Jan-19 05:00N 34°58' E 136°39'0 0.0
2018-Jan-19 04:30N 34°58' E 136°39'2 4.7
2018-Jan-19 04:00N 34°56' E 136°41'611.8
2018-Jan-19 03:30N 34°51' E 136°44'611.8
2018-Jan-19 03:00N 34°46' E 136°47'611.4
2018-Jan-19 02:30N 34°41' E 136°51'103 8.0
2018-Jan-18 13:42N 33°48' E 135°04'313.0
2018-Jan-18 13:30N 33°50' E 135°02'612.4
2018-Jan-18 13:00N 33°56' E 134°60'612.7
2018-Jan-18 12:30N 34°03' E 134°59'612.7
2018-Jan-18 12:00N 34°09' E 134°59'612.6
2018-Jan-18 11:30N 34°15' E 134°59'611.7
2018-Jan-18 11:00N 34°21' E 134°60'611.9
2018-Jan-18 10:31N 34°25' E 135°05'713.0
2018-Jan-18 10:00N 34°29' E 135°11'612.2
2018-Jan-18 09:30N 34°33' E 135°17'612.0
2018-Jan-18 09:00N 34°36' E 135°23'3 6.3
2018-Jan-18 08:30N 34°34' E 135°26'0 0.0
2018-Jan-18 08:00N 34°34' E 135°26'0 0.0
2018-Jan-18 07:30N 34°34' E 135°26'0 0.0
2018-Jan-18 07:00N 34°34' E 135°26'0 0.0
2018-Jan-18 06:24N 34°34' E 135°26'0 0.0
2018-Jan-18 06:00N 34°34' E 135°26'0 0.1
2018-Jan-18 05:30N 34°34' E 135°26'1 1.2
2018-Jan-18 05:00N 34°35' E 135°25'3 6.3
2018-Jan-18 04:30N 34°36' E 135°21'612.4
2018-Jan-18 04:01N 34°31' E 135°16'612.2
2018-Jan-18 03:30N 34°27' E 135°11'612.3
2018-Jan-18 03:00N 34°23' E 135°06'611.6
2018-Jan-18 02:30N 34°19' E 135°01'612.0
2018-Jan-18 02:00N 34°13' E 134°59'612.5
2018-Jan-18 01:30N 34°07' E 135°00'612.2
2018-Jan-18 01:00N 34°01' E 135°01'  

Dump ship's entire track history